sensor_id;sensor_type;location;lat;lon;timestamp;P1;durP1;ratioP1;P2;durP2;ratioP2
64452;SDS011;50813;52.654;6.766;2023-02-28T00:01:10;6.7;;;4.3;;
64452;SDS011;50813;52.654;6.766;2023-02-28T00:02:47;8.1;;;4.8;;
64452;SDS011;50813;52.654;6.766;2023-02-28T00:04:24;9.5;;;4.8;;
64452;SDS011;50813;52.654;6.766;2023-02-28T00:06:00;7.1;;;4.3;;
64452;SDS011;50813;52.654;6.766;2023-02-28T00:09:14;8.71;;;4.7;;
64452;SDS011;50813;52.654;6.766;2023-02-28T00:10:50;10.1;;;4.61;;
64452;SDS011;50813;52.654;6.766;2023-02-28T00:12:26;8.31;;;4.61;;
64452;SDS011;50813;52.654;6.766;2023-02-28T00:15:39;6.3;;;4.2;;
64452;SDS011;50813;52.654;6.766;2023-02-28T00:17:15;6.4;;;4.2;;
64452;SDS011;50813;52.654;6.766;2023-02-28T00:18:51;6.1;;;4.1;;
64452;SDS011;50813;52.654;6.766;2023-02-28T00:22:03;9.31;;;4.61;;
64452;SDS011;50813;52.654;6.766;2023-02-28T00:23:39;6.1;;;4.0;;
64452;SDS011;50813;52.654;6.766;2023-02-28T00:25:16;8.81;;;4.3;;
64452;SDS011;50813;52.654;6.766;2023-02-28T00:26:55;7.9;;;4.3;;
64452;SDS011;50813;52.654;6.766;2023-02-28T00:30:09;8.0;;;4.0;;
64452;SDS011;50813;52.654;6.766;2023-02-28T00:31:51;7.9;;;4.2;;
64452;SDS011;50813;52.654;6.766;2023-02-28T00:33:27;7.5;;;3.9;;
64452;SDS011;50813;52.654;6.766;2023-02-28T00:36:42;7.3;;;4.1;;
64452;SDS011;50813;52.654;6.766;2023-02-28T00:38:18;7.9;;;3.9;;
64452;SDS011;50813;52.654;6.766;2023-02-28T00:39:56;8.6;;;4.1;;
64452;SDS011;50813;52.654;6.766;2023-02-28T00:43:08;7.3;;;3.9;;
64452;SDS011;50813;52.654;6.766;2023-02-28T00:44:44;9.0;;;4.2;;
64452;SDS011;50813;52.654;6.766;2023-02-28T00:46:20;6.5;;;3.6;;
64452;SDS011;50813;52.654;6.766;2023-02-28T00:47:56;6.2;;;3.7;;
64452;SDS011;50813;52.654;6.766;2023-02-28T00:51:09;6.8;;;3.9;;
64452;SDS011;50813;52.654;6.766;2023-02-28T00:52:45;7.6;;;4.1;;
64452;SDS011;50813;52.654;6.766;2023-02-28T00:54:22;6.4;;;4.0;;
64452;SDS011;50813;52.654;6.766;2023-02-28T00:57:35;6.0;;;4.1;;
64452;SDS011;50813;52.654;6.766;2023-02-28T00:59:12;7.7;;;4.0;;
64452;SDS011;50813;52.654;6.766;2023-02-28T01:00:49;7.7;;;4.0;;
64452;SDS011;50813;52.654;6.766;2023-02-28T01:04:02;6.5;;;4.0;;
64452;SDS011;50813;52.654;6.766;2023-02-28T01:05:38;8.0;;;4.61;;
64452;SDS011;50813;52.654;6.766;2023-02-28T01:07:14;5.5;;;3.7;;
64452;SDS011;50813;52.654;6.766;2023-02-28T01:08:50;5.5;;;3.7;;
64452;SDS011;50813;52.654;6.766;2023-02-28T01:12:04;7.7;;;4.41;;
64452;SDS011;50813;52.654;6.766;2023-02-28T01:13:40;9.9;;;5.0;;
64452;SDS011;50813;52.654;6.766;2023-02-28T01:15:17;8.2;;;4.41;;
64452;SDS011;50813;52.654;6.766;2023-02-28T01:18:29;6.2;;;4.1;;
64452;SDS011;50813;52.654;6.766;2023-02-28T01:20:06;5.2;;;3.7;;
64452;SDS011;50813;52.654;6.766;2023-02-28T01:21:42;6.0;;;3.8;;
64452;SDS011;50813;52.654;6.766;2023-02-28T01:24:56;8.71;;;4.41;;
64452;SDS011;50813;52.654;6.766;2023-02-28T01:26:32;8.0;;;4.41;;
64452;SDS011;50813;52.654;6.766;2023-02-28T01:28:08;11.1;;;5.0;;
64452;SDS011;50813;52.654;6.766;2023-02-28T01:29:44;8.6;;;5.3;;
64452;SDS011;50813;52.654;6.766;2023-02-28T01:32:58;7.6;;;4.41;;
64452;SDS011;50813;52.654;6.766;2023-02-28T01:34:35;9.31;;;5.0;;
64452;SDS011;50813;52.654;6.766;2023-02-28T01:36:12;8.71;;;5.11;;
64452;SDS011;50813;52.654;6.766;2023-02-28T01:39:27;10.6;;;5.11;;
64452;SDS011;50813;52.654;6.766;2023-02-28T01:41:03;9.21;;;5.11;;
64452;SDS011;50813;52.654;6.766;2023-02-28T01:42:40;11.8;;;5.6;;
64452;SDS011;50813;52.654;6.766;2023-02-28T01:47:02;9.21;;;4.91;;
64452;SDS011;50813;52.654;6.766;2023-02-28T01:48:40;8.2;;;4.5;;
64452;SDS011;50813;52.654;6.766;2023-02-28T01:51:58;8.71;;;4.91;;
64452;SDS011;50813;52.654;6.766;2023-02-28T01:53:35;8.71;;;4.7;;
64452;SDS011;50813;52.654;6.766;2023-02-28T01:55:18;8.71;;;4.91;;
64452;SDS011;50813;52.654;6.766;2023-02-28T01:56:58;7.5;;;5.11;;
64452;SDS011;50813;52.654;6.766;2023-02-28T02:00:18;7.8;;;4.3;;
64452;SDS011;50813;52.654;6.766;2023-02-28T02:01:59;6.4;;;4.3;;
64452;SDS011;50813;52.654;6.766;2023-02-28T02:03:36;6.9;;;4.1;;
64452;SDS011;50813;52.654;6.766;2023-02-28T02:06:53;8.4;;;4.3;;
64452;SDS011;50813;52.654;6.766;2023-02-28T02:08:30;9.4;;;4.2;;
64452;SDS011;50813;52.654;6.766;2023-02-28T02:10:10;10.21;;;4.8;;
64452;SDS011;50813;52.654;6.766;2023-02-28T02:11:51;8.1;;;4.8;;
64452;SDS011;50813;52.654;6.766;2023-02-28T02:15:29;8.4;;;4.7;;
64452;SDS011;50813;52.654;6.766;2023-02-28T02:17:14;8.9;;;4.7;;
64452;SDS011;50813;52.654;6.766;2023-02-28T02:19:02;6.2;;;4.5;;
64452;SDS011;50813;52.654;6.766;2023-02-28T02:21:07;9.5;;;4.7;;
64452;SDS011;50813;52.654;6.766;2023-02-28T02:24:42;10.8;;;4.8;;
64452;SDS011;50813;52.654;6.766;2023-02-28T02:26:58;8.81;;;5.2;;
64452;SDS011;50813;52.654;6.766;2023-02-28T02:29:51;7.0;;;4.2;;
64452;SDS011;50813;52.654;6.766;2023-02-28T02:32:18;10.1;;;5.2;;
64452;SDS011;50813;52.654;6.766;2023-02-28T02:35:27;8.4;;;5.0;;
64452;SDS011;50813;52.654;6.766;2023-02-28T02:37:12;9.5;;;5.2;;
64452;SDS011;50813;52.654;6.766;2023-02-28T02:38:56;7.3;;;4.41;;
64452;SDS011;50813;52.654;6.766;2023-02-28T02:42:31;9.5;;;4.8;;
64452;SDS011;50813;52.654;6.766;2023-02-28T02:44:17;9.21;;;4.41;;
64452;SDS011;50813;52.654;6.766;2023-02-28T02:45:59;7.6;;;4.7;;
64452;SDS011;50813;52.654;6.766;2023-02-28T02:47:40;11.8;;;5.6;;
64452;SDS011;50813;52.654;6.766;2023-02-28T02:49:20;9.9;;;5.11;;
64452;SDS011;50813;52.654;6.766;2023-02-28T02:52:42;9.1;;;4.5;;
64452;SDS011;50813;52.654;6.766;2023-02-28T02:54:33;8.0;;;4.5;;
64452;SDS011;50813;52.654;6.766;2023-02-28T02:56:12;8.0;;;4.5;;
64452;SDS011;50813;52.654;6.766;2023-02-28T02:57:52;5.9;;;4.7;;
64452;SDS011;50813;52.654;6.766;2023-02-28T03:01:14;6.8;;;4.8;;
64452;SDS011;50813;52.654;6.766;2023-02-28T03:02:54;8.9;;;5.0;;
64452;SDS011;50813;52.654;6.766;2023-02-28T03:04:36;11.4;;;5.6;;
64452;SDS011;50813;52.654;6.766;2023-02-28T03:06:17;9.0;;;5.9;;
64452;SDS011;50813;52.654;6.766;2023-02-28T03:09:32;9.0;;;5.2;;
64452;SDS011;50813;52.654;6.766;2023-02-28T03:11:11;8.6;;;5.0;;
64452;SDS011;50813;52.654;6.766;2023-02-28T03:12:52;8.4;;;4.7;;
64452;SDS011;50813;52.654;6.766;2023-02-28T03:14:42;8.1;;;5.11;;
64452;SDS011;50813;52.654;6.766;2023-02-28T03:16:33;8.31;;;5.11;;
64452;SDS011;50813;52.654;6.766;2023-02-28T03:20:04;7.2;;;4.8;;
64452;SDS011;50813;52.654;6.766;2023-02-28T03:21:53;7.9;;;5.3;;
64452;SDS011;50813;52.654;6.766;2023-02-28T03:23:42;8.4;;;4.8;;
64452;SDS011;50813;52.654;6.766;2023-02-28T03:25:27;11.3;;;5.7;;
64452;SDS011;50813;52.654;6.766;2023-02-28T03:27:14;10.3;;;5.3;;
64452;SDS011;50813;52.654;6.766;2023-02-28T03:28:59;10.4;;;6.2;;
64452;SDS011;50813;52.654;6.766;2023-02-28T03:32:27;10.1;;;5.2;;
64452;SDS011;50813;52.654;6.766;2023-02-28T03:34:10;8.1;;;5.4;;
64452;SDS011;50813;52.654;6.766;2023-02-28T03:35:54;8.81;;;5.4;;
64452;SDS011;50813;52.654;6.766;2023-02-28T03:37:36;9.6;;;5.0;;
64452;SDS011;50813;52.654;6.766;2023-02-28T03:40:58;7.3;;;5.11;;
64452;SDS011;50813;52.654;6.766;2023-02-28T03:42:41;9.31;;;5.11;;
64452;SDS011;50813;52.654;6.766;2023-02-28T03:44:23;7.7;;;5.11;;
64452;SDS011;50813;52.654;6.766;2023-02-28T03:46:06;6.9;;;5.0;;
64452;SDS011;50813;52.654;6.766;2023-02-28T03:47:46;9.1;;;5.2;;
64452;SDS011;50813;52.654;6.766;2023-02-28T03:51:11;7.6;;;5.3;;
64452;SDS011;50813;52.654;6.766;2023-02-28T03:52:52;6.1;;;4.3;;
64452;SDS011;50813;52.654;6.766;2023-02-28T03:54:38;7.0;;;4.8;;
64452;SDS011;50813;52.654;6.766;2023-02-28T03:56:22;11.0;;;5.3;;
64452;SDS011;50813;52.654;6.766;2023-02-28T03:59:52;9.71;;;5.8;;
64452;SDS011;50813;52.654;6.766;2023-02-28T04:01:35;7.2;;;5.4;;
64452;SDS011;50813;52.654;6.766;2023-02-28T04:03:16;7.1;;;5.3;;
64452;SDS011;50813;52.654;6.766;2023-02-28T04:04:52;6.2;;;4.91;;
64452;SDS011;50813;52.654;6.766;2023-02-28T04:08:08;7.8;;;5.3;;
64452;SDS011;50813;52.654;6.766;2023-02-28T04:09:44;6.5;;;5.0;;
64452;SDS011;50813;52.654;6.766;2023-02-28T04:11:21;7.6;;;5.6;;
64452;SDS011;50813;52.654;6.766;2023-02-28T04:13:02;5.6;;;5.0;;
64452;SDS011;50813;52.654;6.766;2023-02-28T04:16:14;9.21;;;5.4;;
64452;SDS011;50813;52.654;6.766;2023-02-28T04:17:51;8.4;;;5.2;;
64452;SDS011;50813;52.654;6.766;2023-02-28T04:19:28;7.5;;;5.5;;
64452;SDS011;50813;52.654;6.766;2023-02-28T04:22:41;7.4;;;5.4;;
64452;SDS011;50813;52.654;6.766;2023-02-28T04:24:18;11.7;;;5.11;;
64452;SDS011;50813;52.654;6.766;2023-02-28T04:25:56;7.3;;;4.8;;
64452;SDS011;50813;52.654;6.766;2023-02-28T04:27:32;7.5;;;4.7;;
64452;SDS011;50813;52.654;6.766;2023-02-28T04:30:53;7.8;;;4.3;;
64452;SDS011;50813;52.654;6.766;2023-02-28T04:32:31;8.6;;;5.0;;
64452;SDS011;50813;52.654;6.766;2023-02-28T04:34:07;6.1;;;4.8;;
64452;SDS011;50813;52.654;6.766;2023-02-28T04:37:19;6.1;;;4.8;;
64452;SDS011;50813;52.654;6.766;2023-02-28T04:38:55;6.4;;;4.91;;
64452;SDS011;50813;52.654;6.766;2023-02-28T04:40:32;8.31;;;4.7;;
64452;SDS011;50813;52.654;6.766;2023-02-28T04:42:09;10.7;;;5.3;;
64452;SDS011;50813;52.654;6.766;2023-02-28T04:45:22;6.1;;;4.41;;
64452;SDS011;50813;52.654;6.766;2023-02-28T04:46:58;8.71;;;5.0;;
64452;SDS011;50813;52.654;6.766;2023-02-28T04:48:35;7.3;;;5.5;;
64452;SDS011;50813;52.654;6.766;2023-02-28T04:51:50;6.0;;;4.91;;
64452;SDS011;50813;52.654;6.766;2023-02-28T04:53:26;7.5;;;4.61;;
64452;SDS011;50813;52.654;6.766;2023-02-28T04:55:04;6.0;;;4.41;;
64452;SDS011;50813;52.654;6.766;2023-02-28T04:58:18;6.3;;;4.61;;
64452;SDS011;50813;52.654;6.766;2023-02-28T04:59:54;8.71;;;5.0;;
64452;SDS011;50813;52.654;6.766;2023-02-28T05:01:31;6.7;;;4.8;;
64452;SDS011;50813;52.654;6.766;2023-02-28T05:03:08;7.1;;;4.61;;
64452;SDS011;50813;52.654;6.766;2023-02-28T05:06:21;6.1;;;4.41;;
64452;SDS011;50813;52.654;6.766;2023-02-28T05:07:59;6.1;;;4.5;;
64452;SDS011;50813;52.654;6.766;2023-02-28T05:09:35;6.3;;;4.5;;
64452;SDS011;50813;52.654;6.766;2023-02-28T05:12:52;9.31;;;4.41;;
64452;SDS011;50813;52.654;6.766;2023-02-28T05:14:28;9.1;;;5.0;;
64452;SDS011;50813;52.654;6.766;2023-02-28T05:16:05;7.0;;;4.3;;
64452;SDS011;50813;52.654;6.766;2023-02-28T05:17:42;6.1;;;4.1;;
64452;SDS011;50813;52.654;6.766;2023-02-28T05:20:55;5.3;;;4.1;;
64452;SDS011;50813;52.654;6.766;2023-02-28T05:22:31;8.2;;;4.3;;
64452;SDS011;50813;52.654;6.766;2023-02-28T05:24:08;6.3;;;4.2;;
64452;SDS011;50813;52.654;6.766;2023-02-28T05:27:23;6.6;;;4.8;;
64452;SDS011;50813;52.654;6.766;2023-02-28T05:29:00;6.5;;;4.61;;
64452;SDS011;50813;52.654;6.766;2023-02-28T05:30:36;7.4;;;4.41;;
64452;SDS011;50813;52.654;6.766;2023-02-28T05:33:50;7.3;;;4.8;;
64452;SDS011;50813;52.654;6.766;2023-02-28T05:35:26;6.8;;;4.91;;
64452;SDS011;50813;52.654;6.766;2023-02-28T05:37:02;8.31;;;4.7;;
64452;SDS011;50813;52.654;6.766;2023-02-28T05:38:38;6.3;;;4.3;;
64452;SDS011;50813;52.654;6.766;2023-02-28T05:41:52;9.0;;;4.8;;
64452;SDS011;50813;52.654;6.766;2023-02-28T05:43:28;7.9;;;4.5;;
64452;SDS011;50813;52.654;6.766;2023-02-28T05:45:04;6.3;;;4.2;;
64452;SDS011;50813;52.654;6.766;2023-02-28T05:48:17;6.7;;;4.7;;
64452;SDS011;50813;52.654;6.766;2023-02-28T05:49:53;7.0;;;5.0;;
64452;SDS011;50813;52.654;6.766;2023-02-28T05:51:30;6.3;;;4.2;;
64452;SDS011;50813;52.654;6.766;2023-02-28T05:54:42;6.0;;;4.5;;
64452;SDS011;50813;52.654;6.766;2023-02-28T05:56:18;8.4;;;4.8;;
64452;SDS011;50813;52.654;6.766;2023-02-28T05:57:54;5.4;;;4.7;;
64452;SDS011;50813;52.654;6.766;2023-02-28T06:01:30;6.9;;;5.0;;
64452;SDS011;50813;52.654;6.766;2023-02-28T06:03:09;5.7;;;4.8;;
64452;SDS011;50813;52.654;6.766;2023-02-28T06:04:45;6.3;;;4.41;;
64452;SDS011;50813;52.654;6.766;2023-02-28T06:06:22;6.3;;;4.7;;
64452;SDS011;50813;52.654;6.766;2023-02-28T06:07:58;8.2;;;5.0;;
64452;SDS011;50813;52.654;6.766;2023-02-28T06:11:11;8.4;;;4.8;;
64452;SDS011;50813;52.654;6.766;2023-02-28T06:12:48;7.6;;;4.5;;
64452;SDS011;50813;52.654;6.766;2023-02-28T06:14:24;9.0;;;4.91;;
64452;SDS011;50813;52.654;6.766;2023-02-28T06:17:37;7.7;;;4.61;;
64452;SDS011;50813;52.654;6.766;2023-02-28T06:19:13;8.9;;;4.5;;
64452;SDS011;50813;52.654;6.766;2023-02-28T06:20:52;9.0;;;5.0;;
64452;SDS011;50813;52.654;6.766;2023-02-28T06:24:05;8.0;;;4.8;;
64452;SDS011;50813;52.654;6.766;2023-02-28T06:25:44;7.9;;;4.5;;
64452;SDS011;50813;52.654;6.766;2023-02-28T06:27:20;6.1;;;4.91;;
64452;SDS011;50813;52.654;6.766;2023-02-28T06:28:57;7.3;;;4.91;;
64452;SDS011;50813;52.654;6.766;2023-02-28T06:32:09;6.4;;;4.2;;
64452;SDS011;50813;52.654;6.766;2023-02-28T06:33:45;8.2;;;5.11;;
64452;SDS011;50813;52.654;6.766;2023-02-28T06:35:22;6.8;;;5.0;;
64452;SDS011;50813;52.654;6.766;2023-02-28T06:38:36;7.8;;;5.3;;
64452;SDS011;50813;52.654;6.766;2023-02-28T06:40:14;5.7;;;4.8;;
64452;SDS011;50813;52.654;6.766;2023-02-28T06:41:51;7.6;;;5.3;;
64452;SDS011;50813;52.654;6.766;2023-02-28T06:45:05;8.81;;;5.11;;
64452;SDS011;50813;52.654;6.766;2023-02-28T06:46:43;6.2;;;4.5;;
64452;SDS011;50813;52.654;6.766;2023-02-28T06:48:20;7.5;;;4.61;;
64452;SDS011;50813;52.654;6.766;2023-02-28T06:49:56;8.0;;;5.0;;
64452;SDS011;50813;52.654;6.766;2023-02-28T06:53:09;7.4;;;5.0;;
64452;SDS011;50813;52.654;6.766;2023-02-28T06:54:45;7.4;;;5.0;;
64452;SDS011;50813;52.654;6.766;2023-02-28T06:56:21;5.5;;;4.8;;
64452;SDS011;50813;52.654;6.766;2023-02-28T06:59:34;8.9;;;5.11;;
64452;SDS011;50813;52.654;6.766;2023-02-28T07:01:11;7.7;;;5.2;;
64452;SDS011;50813;52.654;6.766;2023-02-28T07:02:49;7.8;;;5.3;;
64452;SDS011;50813;52.654;6.766;2023-02-28T07:04:25;10.8;;;5.3;;
64452;SDS011;50813;52.654;6.766;2023-02-28T07:07:38;7.2;;;4.7;;
64452;SDS011;50813;52.654;6.766;2023-02-28T07:09:15;9.1;;;4.91;;
64452;SDS011;50813;52.654;6.766;2023-02-28T07:10:52;7.3;;;4.8;;
64452;SDS011;50813;52.654;6.766;2023-02-28T07:14:05;8.0;;;4.5;;
64452;SDS011;50813;52.654;6.766;2023-02-28T07:15:41;6.8;;;4.8;;
64452;SDS011;50813;52.654;6.766;2023-02-28T07:17:17;8.71;;;5.3;;
64452;SDS011;50813;52.654;6.766;2023-02-28T07:20:29;6.2;;;4.61;;
64452;SDS011;50813;52.654;6.766;2023-02-28T07:22:07;7.1;;;5.0;;
64452;SDS011;50813;52.654;6.766;2023-02-28T07:23:43;7.7;;;4.61;;
64452;SDS011;50813;52.654;6.766;2023-02-28T07:25:20;6.0;;;4.91;;
64452;SDS011;50813;52.654;6.766;2023-02-28T07:28:33;7.5;;;4.7;;
64452;SDS011;50813;52.654;6.766;2023-02-28T07:30:10;6.4;;;4.91;;
64452;SDS011;50813;52.654;6.766;2023-02-28T07:31:46;6.0;;;4.7;;
64452;SDS011;50813;52.654;6.766;2023-02-28T07:34:58;8.4;;;5.0;;
64452;SDS011;50813;52.654;6.766;2023-02-28T07:36:35;5.11;;;4.61;;
64452;SDS011;50813;52.654;6.766;2023-02-28T07:38:11;7.7;;;5.11;;
64452;SDS011;50813;52.654;6.766;2023-02-28T07:41:23;7.0;;;5.11;;
64452;SDS011;50813;52.654;6.766;2023-02-28T07:42:59;6.3;;;4.7;;
64452;SDS011;50813;52.654;6.766;2023-02-28T07:44:36;5.3;;;4.5;;
64452;SDS011;50813;52.654;6.766;2023-02-28T07:47:51;6.7;;;5.2;;
64452;SDS011;50813;52.654;6.766;2023-02-28T07:49:29;6.4;;;5.11;;
64452;SDS011;50813;52.654;6.766;2023-02-28T07:51:05;6.7;;;5.0;;
64452;SDS011;50813;52.654;6.766;2023-02-28T07:52:41;8.0;;;4.91;;
64452;SDS011;50813;52.654;6.766;2023-02-28T07:55:55;6.4;;;4.91;;
64452;SDS011;50813;52.654;6.766;2023-02-28T07:57:31;10.4;;;5.2;;
64452;SDS011;50813;52.654;6.766;2023-02-28T07:59:07;7.9;;;5.9;;
64452;SDS011;50813;52.654;6.766;2023-02-28T08:02:20;8.71;;;6.4;;
64452;SDS011;50813;52.654;6.766;2023-02-28T08:03:56;7.6;;;5.6;;
64452;SDS011;50813;52.654;6.766;2023-02-28T08:05:32;9.31;;;6.3;;
64452;SDS011;50813;52.654;6.766;2023-02-28T08:08:44;7.4;;;6.0;;
64452;SDS011;50813;52.654;6.766;2023-02-28T08:10:20;10.4;;;6.9;;
64452;SDS011;50813;52.654;6.766;2023-02-28T08:11:57;11.2;;;6.6;;
64452;SDS011;50813;52.654;6.766;2023-02-28T08:13:33;10.7;;;6.9;;
64452;SDS011;50813;52.654;6.766;2023-02-28T08:18:23;9.6;;;6.0;;
64452;SDS011;50813;52.654;6.766;2023-02-28T08:19:59;7.0;;;5.6;;
64452;SDS011;50813;52.654;6.766;2023-02-28T08:23:12;7.3;;;5.4;;
64452;SDS011;50813;52.654;6.766;2023-02-28T08:24:49;8.5;;;5.5;;
64452;SDS011;50813;52.654;6.766;2023-02-28T08:26:25;7.7;;;5.7;;
64452;SDS011;50813;52.654;6.766;2023-02-28T08:29:37;8.81;;;5.3;;
64452;SDS011;50813;52.654;6.766;2023-02-28T08:31:15;9.31;;;5.11;;
64452;SDS011;50813;52.654;6.766;2023-02-28T08:32:53;8.1;;;5.11;;
64452;SDS011;50813;52.654;6.766;2023-02-28T08:34:29;8.81;;;5.4;;
64452;SDS011;50813;52.654;6.766;2023-02-28T08:37:43;8.5;;;5.4;;
64452;SDS011;50813;52.654;6.766;2023-02-28T08:39:19;9.4;;;5.6;;
64452;SDS011;50813;52.654;6.766;2023-02-28T08:40:57;6.6;;;5.5;;
64452;SDS011;50813;52.654;6.766;2023-02-28T08:44:12;8.6;;;5.2;;
64452;SDS011;50813;52.654;6.766;2023-02-28T08:45:50;7.8;;;5.0;;
64452;SDS011;50813;52.654;6.766;2023-02-28T08:47:27;5.2;;;4.0;;
64452;SDS011;50813;52.654;6.766;2023-02-28T08:49:03;8.5;;;4.3;;
64452;SDS011;50813;52.654;6.766;2023-02-28T08:52:15;5.6;;;3.9;;
64452;SDS011;50813;52.654;6.766;2023-02-28T08:53:53;5.4;;;3.9;;
64452;SDS011;50813;52.654;6.766;2023-02-28T08:55:30;4.7;;;3.2;;
64452;SDS011;50813;52.654;6.766;2023-02-28T08:58:42;4.61;;;3.6;;
64452;SDS011;50813;52.654;6.766;2023-02-28T09:00:21;5.11;;;3.0;;
64452;SDS011;50813;52.654;6.766;2023-02-28T09:01:57;4.91;;;3.5;;
64452;SDS011;50813;52.654;6.766;2023-02-28T09:05:10;3.9;;;2.8;;
64452;SDS011;50813;52.654;6.766;2023-02-28T09:06:46;4.41;;;2.5;;
64452;SDS011;50813;52.654;6.766;2023-02-28T09:08:22;3.0;;;2.31;;
64452;SDS011;50813;52.654;6.766;2023-02-28T09:09:59;4.3;;;2.5;;
64452;SDS011;50813;52.654;6.766;2023-02-28T09:13:12;2.9;;;2.1;;
64452;SDS011;50813;52.654;6.766;2023-02-28T09:14:48;3.6;;;1.9;;
64452;SDS011;50813;52.654;6.766;2023-02-28T09:16:25;2.31;;;1.9;;
64452;SDS011;50813;52.654;6.766;2023-02-28T09:19:37;2.7;;;1.9;;
64452;SDS011;50813;52.654;6.766;2023-02-28T09:21:14;2.8;;;1.8;;
64452;SDS011;50813;52.654;6.766;2023-02-28T09:22:52;3.0;;;1.8;;
64452;SDS011;50813;52.654;6.766;2023-02-28T09:26:04;3.2;;;2.21;;
64452;SDS011;50813;52.654;6.766;2023-02-28T09:27:42;2.0;;;1.8;;
64452;SDS011;50813;52.654;6.766;2023-02-28T09:29:18;3.7;;;2.0;;
64452;SDS011;50813;52.654;6.766;2023-02-28T09:30:54;2.1;;;1.5;;
64452;SDS011;50813;52.654;6.766;2023-02-28T09:34:07;3.0;;;1.6;;
64452;SDS011;50813;52.654;6.766;2023-02-28T09:35:43;3.7;;;1.7;;
64452;SDS011;50813;52.654;6.766;2023-02-28T09:37:19;3.1;;;1.8;;
64452;SDS011;50813;52.654;6.766;2023-02-28T09:40:32;1.6;;;1.5;;
64452;SDS011;50813;52.654;6.766;2023-02-28T09:42:17;1.6;;;1.5;;
64452;SDS011;50813;52.654;6.766;2023-02-28T09:44:05;2.4;;;1.7;;
64452;SDS011;50813;52.654;6.766;2023-02-28T09:45:50;3.3;;;1.8;;
64452;SDS011;50813;52.654;6.766;2023-02-28T09:49:12;1.3;;;1.2;;
64452;SDS011;50813;52.654;6.766;2023-02-28T09:50:52;1.6;;;1.2;;
64452;SDS011;50813;52.654;6.766;2023-02-28T09:52:36;2.21;;;1.5;;
64452;SDS011;50813;52.654;6.766;2023-02-28T09:54:14;2.1;;;1.4;;
64452;SDS011;50813;52.654;6.766;2023-02-28T09:57:35;1.4;;;1.3;;
64452;SDS011;50813;52.654;6.766;2023-02-28T09:59:18;2.21;;;1.6;;
64452;SDS011;50813;52.654;6.766;2023-02-28T10:01:19;2.1;;;1.4;;
64452;SDS011;50813;52.654;6.766;2023-02-28T10:03:12;2.4;;;1.11;;
64452;SDS011;50813;52.654;6.766;2023-02-28T10:05:02;1.9;;;1.3;;
64452;SDS011;50813;52.654;6.766;2023-02-28T10:06:44;1.5;;;1.3;;
64452;SDS011;50813;52.654;6.766;2023-02-28T10:10:06;2.0;;;1.4;;
64452;SDS011;50813;52.654;6.766;2023-02-28T10:12:02;1.9;;;1.5;;
64452;SDS011;50813;52.654;6.766;2023-02-28T10:13:43;1.6;;;1.4;;
64452;SDS011;50813;52.654;6.766;2023-02-28T10:15:28;2.1;;;1.7;;
64452;SDS011;50813;52.654;6.766;2023-02-28T10:17:08;3.0;;;1.4;;
64452;SDS011;50813;52.654;6.766;2023-02-28T10:20:35;1.5;;;1.11;;
64452;SDS011;50813;52.654;6.766;2023-02-28T10:23:59;1.5;;;1.2;;
64452;SDS011;50813;52.654;6.766;2023-02-28T10:25:54;1.11;;;1.0;;
64452;SDS011;50813;52.654;6.766;2023-02-28T10:27:34;1.5;;;1.2;;
64452;SDS011;50813;52.654;6.766;2023-02-28T10:30:48;2.0;;;1.2;;
64452;SDS011;50813;52.654;6.766;2023-02-28T10:32:26;1.3;;;1.2;;
64452;SDS011;50813;52.654;6.766;2023-02-28T10:34:07;2.21;;;1.3;;
64452;SDS011;50813;52.654;6.766;2023-02-28T10:35:47;1.8;;;1.3;;
64452;SDS011;50813;52.654;6.766;2023-02-28T10:39:02;1.8;;;1.3;;
64452;SDS011;50813;52.654;6.766;2023-02-28T10:41:11;2.31;;;1.4;;
64452;SDS011;50813;52.654;6.766;2023-02-28T10:42:56;2.4;;;1.4;;
64452;SDS011;50813;52.654;6.766;2023-02-28T10:44:34;2.9;;;1.5;;
64452;SDS011;50813;52.654;6.766;2023-02-28T10:46:11;1.7;;;1.4;;
64452;SDS011;50813;52.654;6.766;2023-02-28T10:49:30;2.5;;;1.5;;
64452;SDS011;50813;52.654;6.766;2023-02-28T10:51:07;1.6;;;1.2;;
64452;SDS011;50813;52.654;6.766;2023-02-28T10:52:46;2.0;;;1.5;;
64452;SDS011;50813;52.654;6.766;2023-02-28T10:56:04;2.5;;;1.4;;
64452;SDS011;50813;52.654;6.766;2023-02-28T10:57:49;4.61;;;1.4;;
64452;SDS011;50813;52.654;6.766;2023-02-28T10:59:29;2.8;;;1.6;;
64452;SDS011;50813;52.654;6.766;2023-02-28T11:01:10;2.9;;;1.4;;
64452;SDS011;50813;52.654;6.766;2023-02-28T11:04:34;2.1;;;1.4;;
64452;SDS011;50813;52.654;6.766;2023-02-28T11:06:14;2.4;;;1.4;;
64452;SDS011;50813;52.654;6.766;2023-02-28T11:07:54;3.1;;;1.8;;
64452;SDS011;50813;52.654;6.766;2023-02-28T11:09:34;1.2;;;1.11;;
64452;SDS011;50813;52.654;6.766;2023-02-28T11:12:54;1.5;;;1.4;;
64452;SDS011;50813;52.654;6.766;2023-02-28T11:14:31;2.21;;;1.3;;
64452;SDS011;50813;52.654;6.766;2023-02-28T11:16:30;1.5;;;1.3;;
64452;SDS011;50813;52.654;6.766;2023-02-28T11:18:17;2.4;;;1.5;;
64452;SDS011;50813;52.654;6.766;2023-02-28T11:19:59;1.6;;;1.2;;
64452;SDS011;50813;52.654;6.766;2023-02-28T11:23:24;2.31;;;1.4;;
64452;SDS011;50813;52.654;6.766;2023-02-28T11:25:06;1.8;;;1.2;;
64452;SDS011;50813;52.654;6.766;2023-02-28T11:26:46;1.7;;;1.2;;
64452;SDS011;50813;52.654;6.766;2023-02-28T11:28:26;2.21;;;1.2;;
64452;SDS011;50813;52.654;6.766;2023-02-28T11:30:11;1.6;;;1.2;;
64452;SDS011;50813;52.654;6.766;2023-02-28T11:33:49;1.4;;;1.3;;
64452;SDS011;50813;52.654;6.766;2023-02-28T11:35:28;2.7;;;1.6;;
64452;SDS011;50813;52.654;6.766;2023-02-28T11:37:11;2.7;;;1.3;;
64452;SDS011;50813;52.654;6.766;2023-02-28T11:38:51;1.9;;;1.3;;
64452;SDS011;50813;52.654;6.766;2023-02-28T11:42:23;2.7;;;1.5;;
64452;SDS011;50813;52.654;6.766;2023-02-28T11:45:22;1.6;;;1.5;;
64452;SDS011;50813;52.654;6.766;2023-02-28T11:47:15;2.0;;;1.6;;
64452;SDS011;50813;52.654;6.766;2023-02-28T11:49:02;1.9;;;1.6;;
64452;SDS011;50813;52.654;6.766;2023-02-28T11:52:43;1.6;;;1.4;;
64452;SDS011;50813;52.654;6.766;2023-02-28T11:54:27;1.7;;;1.4;;
64452;SDS011;50813;52.654;6.766;2023-02-28T11:56:29;2.9;;;1.6;;
64452;SDS011;50813;52.654;6.766;2023-02-28T11:58:14;3.5;;;2.0;;
64452;SDS011;50813;52.654;6.766;2023-02-28T12:00:33;2.1;;;1.4;;
64452;SDS011;50813;52.654;6.766;2023-02-28T12:02:22;1.9;;;1.6;;
64452;SDS011;50813;52.654;6.766;2023-02-28T12:04:10;1.4;;;1.3;;
64452;SDS011;50813;52.654;6.766;2023-02-28T12:05:58;1.7;;;1.6;;
64452;SDS011;50813;52.654;6.766;2023-02-28T12:07:56;1.7;;;1.3;;
64452;SDS011;50813;52.654;6.766;2023-02-28T12:11:40;2.0;;;1.6;;
64452;SDS011;50813;52.654;6.766;2023-02-28T12:13:28;2.8;;;1.5;;
64452;SDS011;50813;52.654;6.766;2023-02-28T12:15:17;3.9;;;1.9;;
64452;SDS011;50813;52.654;6.766;2023-02-28T12:18:26;2.0;;;1.7;;
64452;SDS011;50813;52.654;6.766;2023-02-28T12:26:28;2.0;;;1.6;;
64452;SDS011;50813;52.654;6.766;2023-02-28T12:28:13;3.8;;;1.8;;
64452;SDS011;50813;52.654;6.766;2023-02-28T12:29:54;1.9;;;1.7;;
64452;SDS011;50813;52.654;6.766;2023-02-28T12:31:35;2.1;;;1.7;;
64452;SDS011;50813;52.654;6.766;2023-02-28T12:34:58;2.4;;;1.7;;
64452;SDS011;50813;52.654;6.766;2023-02-28T12:36:40;3.4;;;1.9;;
64452;SDS011;50813;52.654;6.766;2023-02-28T12:38:20;1.8;;;1.6;;
64452;SDS011;50813;52.654;6.766;2023-02-28T12:40:01;4.3;;;1.9;;
64452;SDS011;50813;52.654;6.766;2023-02-28T12:43:22;4.3;;;1.8;;
64452;SDS011;50813;52.654;6.766;2023-02-28T12:45:09;2.6;;;1.5;;
64452;SDS011;50813;52.654;6.766;2023-02-28T12:46:51;2.7;;;1.9;;
64452;SDS011;50813;52.654;6.766;2023-02-28T12:48:36;1.6;;;1.5;;
64452;SDS011;50813;52.654;6.766;2023-02-28T12:50:18;2.5;;;1.5;;
64452;SDS011;50813;52.654;6.766;2023-02-28T12:53:36;2.9;;;1.6;;
64452;SDS011;50813;52.654;6.766;2023-02-28T12:55:27;2.0;;;1.3;;
64452;SDS011;50813;52.654;6.766;2023-02-28T12:57:15;2.1;;;1.5;;
64452;SDS011;50813;52.654;6.766;2023-02-28T12:59:01;1.7;;;1.6;;
64452;SDS011;50813;52.654;6.766;2023-02-28T13:01:02;1.8;;;1.5;;
64452;SDS011;50813;52.654;6.766;2023-02-28T13:03:42;2.0;;;1.4;;
64452;SDS011;50813;52.654;6.766;2023-02-28T13:05:48;3.9;;;1.8;;
64452;SDS011;50813;52.654;6.766;2023-02-28T13:08:24;2.31;;;1.5;;
64452;SDS011;50813;52.654;6.766;2023-02-28T13:10:37;2.8;;;1.5;;
64452;SDS011;50813;52.654;6.766;2023-02-28T13:12:20;2.21;;;1.6;;
64452;SDS011;50813;52.654;6.766;2023-02-28T13:13:58;2.0;;;1.6;;